Latest Weather Observations for Cairns

IDQ60801

Issued at 8:05 pm EST Wednesday 1 October 2014 (issued every 30 minutes, with the page automatically refreshed every 10 minutes)

About weather observations | Map of weather stations | Latest weather observations for QLD | Other Formats
Station Details ID: 031011 Name: CAIRNS AERO Lat: -16.87 Lon: 145.75 Height: 2.22 m
Data from the previous 72 hours. | See also: Recent months at Cairns
Date/Time
EST
Temp
°C
App
Temp
°C
Dew
Point
Rel
Hum
%
Delta-T
°C
Wind Press
QNH
hPa
Press
MSL
hPa
Rain
since 9 am
mm
Dir
 
Spd
km/h
Gust
km/h
Spd
kts
Gust
kts
01/08:00pm 22.3 22.4 16.5 69 3.5 SSE 11 17 6 9 1016.1 - 0.0
01/07:30pm 22.7 22.0 16.4 67 3.8 SSE 15 24 8 13 1015.8 - 0.0
01/07:00pm 23.0 21.6 16.6 67 3.9 SSE 19 30 10 16 1015.6 - 0.0
01/06:30pm 23.3 21.4 16.8 67 4.0 SE 22 30 12 16 1015.2 - 0.0
01/06:00pm 23.7 20.8 16.1 62 4.6 SE 26 33 14 18 1015.0 1014.9 0.0
01/05:30pm 24.4 21.2 16.4 61 4.9 SE 28 35 15 19 1014.7 - 0.0
01/05:00pm 24.9 21.7 15.3 55 5.8 SE 26 37 14 20 1014.4 - 0.0
01/04:30pm 25.4 21.8 15.3 53 6.1 SE 28 33 15 18 1014.4 - 0.0
01/04:00pm 26.0 21.4 14.6 49 6.8 SE 32 39 17 21 1014.2 - 0.0
01/03:30pm 26.9 23.4 15.6 50 6.9 ESE 28 35 15 19 1014.1 - 0.0
01/03:00pm 27.5 24.0 15.5 48 7.3 ESE 28 39 15 21 1014.2 1014.1 0.0
01/02:30pm 27.4 24.5 16.0 49 7.0 E 26 35 14 19 1014.4 - 0.0
01/02:00pm 27.2 23.8 16.7 52 6.5 ENE 30 39 16 21 1014.7 - 0.0
01/01:30pm 28.1 23.8 14.3 42 8.3 ESE 30 39 16 21 1014.9 - 0.0
01/01:00pm 28.4 23.3 13.1 39 9.0 ESE 32 39 17 21 1015.1 - 0.0
01/12:30pm 28.4 24.1 12.2 36 9.4 ESE 26 30 14 16 1015.7 - 0.0
01/12:00pm 28.6 24.9 11.6 34 9.8 ESE 22 37 12 20 1016.4 1016.3 0.0
01/11:30am 27.2 23.7 12.1 39 8.7 E 22 30 12 16 1017.4 - 0.0
01/11:00am 27.0 22.9 11.4 37 8.9 SE 24 30 13 16 1017.7 - 0.0
01/10:30am 26.6 22.3 10.8 37 8.9 SE 24 33 13 18 1018.0 - 0.0
01/10:00am 25.9 22.4 11.0 39 8.4 SE 20 28 11 15 1018.3 - 0.0
01/09:30am 25.1 22.7 12.8 46 7.1 SSE 17 24 9 13 1018.4 - 0.0
01/09:00am 24.4 22.4 14.0 52 6.1 SSE 17 24 9 13 1018.6 1018.5 0.2
01/08:30am 23.7 21.3 13.8 53 5.8 SSE 19 24 10 13 1018.6 - 0.2
01/08:00am 22.3 20.8 14.3 60 4.7 SSE 15 20 8 11 1018.3 - 0.2
01/07:30am 22.2 20.8 13.5 57 5.0 S 13 24 7 13 1017.9 - 0.2
01/07:00am 21.0 19.1 14.3 65 3.9 SE 17 22 9 12 1017.5 - 0.2
01/06:30am 19.7 17.5 14.9 74 2.8 SE 20 26 11 14 1017.2 - 0.2
01/06:00am 19.8 17.6 14.8 73 2.9 SE 20 26 11 14 1016.9 1016.8 0.2
01/05:30am 19.8 18.2 15.0 74 2.8 SSE 17 20 9 11 1016.6 - 0.2
01/05:00am 21.5 19.5 13.9 62 4.4 S 17 28 9 15 1016.4 - 0.2
01/04:30am 21.2 19.7 15.3 69 3.5 S 17 24 9 13 1016.1 - 0.2
01/04:00am 19.6 18.1 15.4 77 2.5 SE 17 19 9 10 1015.9 - 0.2
01/03:30am 19.6 18.9 15.5 77 2.4 SE 13 19 7 10 1015.8 - 0.2
01/03:00am 18.7 16.8 15.1 79 2.1 ESE 19 22 10 12 1015.9 1015.8 0.2
01/02:32am 19.2 17.3 15.1 77 2.4 ESE 19 24 10 13 1016.1 - 0.2
01/02:00am 19.9 18.4 15.3 75 2.7 SE 17 19 9 10 1016.4 - 0.2
01/01:30am 21.1 20.1 15.7 71 3.2 S 15 22 8 12 1016.5 - 0.2
01/01:00am 19.8 19.4 15.2 75 2.7 SE 11 15 6 8 1017.0 - 0.2
01/12:30am 20.0 18.8 15.1 73 2.9 ESE 15 17 8 9 1017.3 - 0.2
01/12:00am 20.1 19.2 14.8 71 3.1 ESE 13 15 7 8 1017.6 1017.5 0.2
 
Date/Time
EST
Temp
°C
App
Temp
°C
Dew
Point
Rel
Hum
%
Delta-T
°C
Wind Press
QNH
hPa
Press
MSL
hPa
Rain
since 9 am
mm
Dir
 
Spd
km/h
Gust
km/h
Spd
kts
Gust
kts
30/11:30pm 21.6 20.6 14.6 64 4.1 S 13 20 7 11 1017.7 - 0.2
30/11:00pm 21.6 20.6 14.6 64 4.1 SSE 13 17 7 9 1018.0 - 0.2
30/10:30pm 21.8 20.8 14.5 63 4.3 S 13 22 7 12 1018.1 - 0.2
30/10:00pm 22.2 22.4 14.7 62 4.4 SSW 7 15 4 8 1018.3 - 0.2
30/09:30pm 22.0 21.7 14.3 61 4.5 S 9 15 5 8 1018.3 - 0.2
30/09:00pm 22.3 22.3 14.1 59 4.8 SW 7 15 4 8 1018.1 1018.0 0.2
30/08:30pm 22.3 21.6 14.3 60 4.7 S 11 17 6 9 1017.9 - 0.2
30/08:00pm 22.4 21.4 14.6 61 4.6 S 13 20 7 11 1017.6 - 0.2
30/07:30pm 22.5 22.2 14.3 59 4.8 S 9 13 5 7 1017.5 - 0.2
30/07:00pm 22.2 21.9 14.3 61 4.6 SSE 9 15 5 8 1017.2 - 0.2
30/06:30pm 23.1 21.5 14.0 56 5.3 SSE 15 20 8 11 1016.6 - 0.2
30/06:00pm 23.8 20.9 13.9 54 5.8 SSE 22 30 12 16 1016.3 1016.2 0.2
30/05:30pm 24.7 20.9 13.6 50 6.5 SE 26 32 14 17 1016.0 - 0.2
30/05:00pm 25.6 23.1 13.5 47 7.1 E 19 22 10 12 1015.8 - 0.2
30/04:30pm 26.2 22.6 13.2 44 7.6 E 24 32 13 17 1015.6 - 0.2
30/04:00pm 26.8 22.6 12.5 41 8.3 ESE 26 33 14 18 1015.5 - 0.2
30/03:30pm 27.3 23.5 12.5 40 8.6 E 24 30 13 16 1015.3 - 0.2
30/03:00pm 27.4 24.2 12.0 38 8.9 E 20 32 11 17 1015.4 1015.3 0.2
30/02:30pm 28.4 24.1 10.8 33 10.0 E 24 33 13 18 1015.6 - 0.2
30/02:00pm 28.1 23.8 10.6 33 9.9 E 24 32 13 17 1015.9 - 0.2
30/01:30pm 28.0 22.7 9.9 32 10.1 E 28 37 15 20 1016.1 - 0.2
30/01:00pm 28.3 24.8 12.1 36 9.4 ESE 22 26 12 14 1016.7 - 0.2
30/12:30pm 26.6 20.9 11.7 39 8.5 SE 33 43 18 23 1017.2 - 0.2
30/12:00pm 27.3 22.1 11.6 37 9.0 SE 30 39 16 21 1017.5 1017.4 0.2
30/11:30am 27.7 22.4 12.4 38 8.9 SE 32 41 17 22 1018.1 - 0.2
30/11:00am 27.7 22.4 11.4 36 9.3 SE 30 37 16 20 1018.6 - 0.2
30/10:30am 27.2 21.7 12.6 40 8.5 ESE 33 41 18 22 1018.8 - 0.2
30/10:00am 25.8 20.8 13.5 46 7.2 SE 32 41 17 22 1018.9 - 0.0
30/09:30am 24.9 24.4 17.9 65 4.4 SSE 17 28 9 15 1019.2 - 0.0
30/09:00am 22.6 21.9 17.4 72 3.2 S 17 26 9 14 1019.1 1019.0 1.4
30/08:30am 21.5 21.1 18.1 81 2.1 S 17 26 9 14 1019.0 - 1.4
30/08:00am 22.8 23.4 18.5 77 2.7 S 13 22 7 12 1018.6 - 1.4
30/07:30am 21.7 21.2 17.8 78 2.4 S 17 30 9 16 1018.3 - 1.4
30/07:00am 21.2 21.0 17.6 80 2.2 S 15 26 8 14 1017.9 - 1.4
30/06:30am 20.8 20.7 17.9 83 1.8 SSE 15 20 8 11 1017.4 - 1.4
30/06:00am 20.8 20.5 17.4 81 2.1 S 15 24 8 13 1017.0 1016.9 1.4
30/05:30am 20.3 19.9 18.0 87 1.4 S 17 26 9 14 1016.8 - 1.4
30/05:00am 19.8 18.9 18.3 91 0.9 S 20 32 11 17 1016.7 - 1.2
30/04:30am 20.3 19.4 17.7 85 1.6 S 19 32 10 17 1016.3 - 1.2
30/04:00am 19.8 19.2 18.5 92 0.8 S 19 28 10 15 1016.2 - 1.0
30/03:30am 20.6 19.8 18.0 85 1.6 SSE 19 30 10 16 1016.2 - 0.8
30/03:00am 21.4 21.1 18.2 82 2.0 S 17 26 9 14 1016.2 1016.1 0.8
30/02:30am 21.9 22.1 17.7 77 2.6 SSE 13 17 7 9 1016.1 - 0.8
30/02:00am 22.0 22.6 17.8 77 2.6 SSE 11 15 6 8 1016.2 - 0.8
30/01:30am 22.5 22.9 17.3 72 3.2 S 11 17 6 9 1016.6 - 0.8
30/01:00am 21.9 21.7 17.7 77 2.6 S 15 19 8 10 1016.8 - 0.8
30/12:30am 21.9 21.8 17.9 78 2.5 S 15 20 8 11 1017.0 - 0.8
30/12:00am 21.4 21.7 18.0 81 2.1 S 13 19 7 10 1017.3 1017.2 0.8
 
Date/Time
EST
Temp
°C
App
Temp
°C
Dew
Point
Rel
Hum
%
Delta-T
°C
Wind Press
QNH
hPa
Press
MSL
hPa
Rain
since 9 am
mm
Dir
 
Spd
km/h
Gust
km/h
Spd
kts
Gust
kts
29/11:30pm 22.5 22.6 16.6 69 3.6 SSE 11 15 6 8 1017.4 - 0.8
29/11:00pm 22.1 21.7 16.3 69 3.5 SSE 13 19 7 10 1017.5 - 0.8
29/10:30pm 22.5 22.1 16.2 67 3.8 S 13 19 7 10 1017.7 - 0.8
29/10:00pm 22.7 22.3 16.1 66 4.0 SSE 13 19 7 10 1017.7 - 0.8
29/09:30pm 22.8 21.8 15.6 64 4.3 S 15 19 8 10 1017.6 - 0.8
29/09:00pm 22.7 22.1 15.7 64 4.2 SSE 13 19 7 10 1017.3 1017.2 0.8
29/08:30pm 22.6 21.9 15.4 64 4.3 SSE 13 15 7 8 1017.1 - 0.8
29/08:00pm 22.8 22.2 15.6 64 4.3 SSE 13 17 7 9 1016.9 - 0.8
29/07:30pm 23.3 20.9 15.3 60 4.8 SE 22 30 12 16 1016.8 - 0.8
29/07:00pm 23.6 21.5 16.2 63 4.5 SE 22 28 12 15 1016.4 - 0.8
29/06:30pm 23.7 21.0 15.6 60 4.9 SE 24 30 13 16 1016.0 - 0.8
29/06:00pm 24.3 20.8 15.5 58 5.3 SE 28 35 15 19 1015.8 1015.7 0.8
29/05:30pm 25.0 20.9 14.8 53 6.1 SE 30 37 16 20 1015.4 - 0.8
29/05:00pm 25.7 21.2 14.9 51 6.5 SE 32 37 17 20 1015.2 - 0.8
29/04:30pm 26.3 23.3 15.8 52 6.4 E 26 33 14 18 1015.1 - 0.8
29/04:00pm 26.7 21.9 14.5 47 7.3 ESE 33 41 18 22 1015.0 - 0.8
29/03:30pm 25.9 22.3 14.1 48 7.0 ESE 26 33 14 18 1015.2 - 0.8
29/03:00pm 24.7 19.3 14.0 51 6.3 ESE 35 50 19 27 1015.6 1015.5 0.8
29/02:30pm 25.2 20.7 16.4 58 5.4 E 35 44 19 24 1015.6 - 0.8
29/02:00pm 27.6 22.2 13.8 42 8.2 ESE 35 43 19 23 1015.5 - 0.8
29/01:30pm 28.1 22.5 13.2 39 8.8 ESE 35 46 19 25 1015.8 - 0.8
29/01:00pm 28.5 22.8 11.9 35 9.6 ESE 33 46 18 25 1016.2 - 0.8
29/12:30pm 28.4 23.8 12.2 36 9.4 SE 28 39 15 21 1016.6 - 0.8
29/12:00pm 28.0 23.7 14.5 43 8.1 SE 30 39 16 21 1017.0 1016.9 0.8
29/11:30am 26.9 23.9 12.6 41 8.3 SSE 20 35 11 19 1017.6 - 0.8
29/11:00am 25.6 26.7 19.7 70 3.8 SSE 13 26 7 14 1018.1 - 0.8
29/10:30am 22.6 22.2 18.1 76 2.8 S 17 24 9 13 1018.6 - 0.8
29/10:00am 20.7 19.6 17.4 81 2.0 S 19 28 10 15 1018.8 - 0.8
29/09:47am 20.2 19.4 18.1 88 1.3 S 19 33 10 18 1018.9 - 0.6
29/09:30am 20.7 21.1 18.1 85 1.6 SSE 13 17 7 9 1018.7 - 0.4
29/09:00am 21.4 22.2 18.2 82 2.0 S 11 19 6 10 1018.5 1018.4 0.2
29/08:30am 22.8 21.7 15.2 62 4.5 SSE 15 20 8 11 1018.3 - 0.0
29/08:00am 23.4 22.5 14.8 58 5.1 SSE 13 22 7 12 1018.0 - 0.0
29/07:30am 21.8 20.3 15.4 67 3.8 SE 17 20 9 11 1017.7 - 0.0
29/07:00am 22.6 21.1 15.4 64 4.3 S 17 26 9 14 1017.2 - 0.0
29/06:30am 21.9 20.4 15.2 65 4.0 S 17 26 9 14 1016.8 - 0.0
29/06:00am 22.1 20.6 15.2 65 4.1 S 17 26 9 14 1016.5 1016.4 0.0
29/05:30am 21.6 20.5 15.2 67 3.8 SSE 15 24 8 13 1016.2 - 0.0
29/05:00am 21.1 20.4 15.4 70 3.4 S 13 20 7 11 1015.8 - 0.0
29/04:30am 20.1 18.0 14.8 71 3.1 SE 19 22 10 12 1015.5 - 0.0
29/04:00am 21.3 21.9 15.2 68 3.6 SSE 6 9 3 5 1015.2 - 0.0
29/03:30am 19.6 19.8 14.6 73 2.9 S 7 15 4 8 1015.2 - 0.0
29/03:00am 19.2 18.2 14.5 74 2.7 SE 13 17 7 9 1015.5 1015.4 0.0
29/02:30am 19.5 20.8 15.2 76 2.5 W 2 7 1 4 1015.7 - 0.0
29/02:00am 19.8 18.9 14.8 73 2.9 SE 13 22 7 12 1016.1 - 0.0
29/01:30am 19.2 19.7 14.9 76 2.5 E 6 9 3 5 1016.2 - 0.0
29/01:00am 19.2 19.7 14.9 76 2.5 ENE 6 13 3 7 1016.6 - 0.0
29/12:30am 20.2 21.9 15.3 73 2.9 CALM 0 0 0 0 1016.9 - 0.0
29/12:00am 21.8 21.0 15.2 66 3.9 S 13 17 7 9 1017.2 1017.1 0.0
 
Date/Time
EST
Temp
°C
App
Temp
°C
Dew
Point
Rel
Hum
%
Delta-T
°C
Wind Press
QNH
hPa
Press
MSL
hPa
Rain
since 9 am
mm
Dir
 
Spd
km/h
Gust
km/h
Spd
kts
Gust
kts
28/11:30pm 22.1 21.2 14.8 63 4.3 S 13 17 7 9 1017.4 - 0.0
28/11:00pm 22.5 21.5 14.5 60 4.7 S 13 17 7 9 1017.7 - 0.0
28/10:30pm 22.7 22.4 14.3 59 4.9 S 9 13 5 7 1017.8 - 0.0
28/10:00pm 22.5 21.9 14.7 61 4.6 S 11 19 6 10 1018.1 - 0.0
28/09:30pm 23.0 22.4 14.5 58 5.0 S 11 17 6 9 1018.0 - 0.0
28/09:00pm 22.0 22.5 15.5 66 3.9 SSE 7 11 4 6 1018.0 1017.9 0.0
28/08:30pm 21.9 21.9 15.3 66 3.9 SSE 9 13 5 7 1017.6 - 0.0

Other Formats:

Comma delimited format used in spreadsheet applications
http://www.bom.gov.au/fwo/IDQ60801/IDQ60801.94287.axf

JavaScript Object Notation format (JSON) in row-major order
http://www.bom.gov.au/fwo/IDQ60801/IDQ60801.94287.json